createdAt,value
2018-11-03T00:00:14.225Z,21.67
2018-11-03T00:05:17.705Z,21.68
2018-11-03T00:10:21.250Z,21.68
2018-11-03T00:15:24.707Z,21.68
2018-11-03T00:20:28.163Z,21.71
2018-11-03T00:25:31.630Z,21.72
2018-11-03T00:30:35.119Z,21.70
2018-11-03T00:35:38.612Z,21.69
2018-11-03T00:40:42.098Z,21.70
2018-11-03T00:45:45.559Z,21.71
2018-11-03T00:50:49.012Z,21.71
2018-11-03T00:55:52.447Z,21.73
2018-11-03T01:05:58.384Z,21.72
2018-11-03T01:11:01.902Z,21.72
2018-11-03T01:16:05.726Z,21.71
2018-11-03T01:21:09.462Z,21.72
2018-11-03T01:26:12.917Z,21.70
2018-11-03T01:31:16.348Z,21.70
2018-11-03T01:36:19.906Z,21.70
2018-11-03T01:41:23.352Z,21.70
2018-11-03T01:46:26.796Z,21.68
2018-11-03T01:51:30.294Z,21.67
2018-11-03T01:56:33.764Z,21.68
2018-11-03T02:01:37.213Z,21.66
2018-11-03T02:06:40.723Z,21.66
2018-11-03T02:11:44.215Z,21.65
2018-11-03T02:16:47.688Z,21.66
2018-11-03T02:21:51.183Z,21.65
2018-11-03T02:26:55.000Z,21.63
2018-11-03T02:31:58.457Z,21.61
2018-11-03T02:37:01.893Z,21.61
2018-11-03T02:42:05.484Z,21.59
2018-11-03T02:47:08.962Z,21.57
2018-11-03T02:52:12.465Z,21.58
2018-11-03T02:57:15.918Z,21.55
2018-11-03T03:02:19.364Z,21.54
2018-11-03T03:07:22.802Z,21.52
2018-11-03T03:12:26.290Z,21.50
2018-11-03T03:17:29.735Z,21.49
2018-11-03T03:22:33.203Z,21.46
2018-11-03T03:27:36.681Z,21.45
2018-11-03T03:32:40.284Z,21.45
2018-11-03T03:37:43.725Z,21.44
2018-11-03T03:42:47.161Z,21.44
2018-11-03T03:47:50.622Z,21.41
2018-11-03T03:52:54.067Z,21.41
2018-11-03T03:57:57.507Z,21.40
2018-11-03T04:03:00.949Z,21.37
2018-11-03T04:08:04.420Z,21.38
2018-11-03T04:13:07.866Z,21.34
2018-11-03T04:18:11.319Z,21.33
2018-11-03T04:23:14.773Z,21.35
2018-11-03T04:28:18.262Z,21.34
2018-11-03T04:33:21.734Z,21.33
2018-11-03T04:38:25.182Z,21.30
2018-11-03T04:43:28.614Z,21.30
2018-11-03T04:48:32.138Z,21.32
2018-11-03T04:53:35.578Z,21.28
2018-11-03T04:58:39.033Z,21.28
2018-11-03T05:03:42.494Z,21.26
2018-11-03T05:08:46.123Z,21.24
2018-11-03T05:13:49.577Z,21.24
2018-11-03T05:18:53.038Z,21.23
2018-11-03T05:23:56.511Z,21.21
2018-11-03T05:28:59.991Z,21.19
2018-11-03T05:34:03.447Z,21.21
2018-11-03T05:39:09.135Z,21.20
2018-11-03T05:44:13.041Z,21.19
2018-11-03T05:49:16.482Z,21.19
2018-11-03T05:54:20.033Z,21.17
2018-11-03T05:59:23.405Z,21.17
2018-11-03T06:04:26.872Z,21.17
2018-11-03T06:09:30.323Z,21.15
2018-11-03T06:14:33.771Z,21.16
2018-11-03T06:19:37.233Z,21.14
2018-11-03T06:24:40.830Z,21.11
2018-11-03T06:29:44.277Z,21.09
2018-11-03T06:34:47.725Z,21.13
2018-11-03T06:39:51.275Z,21.13
2018-11-03T06:44:54.735Z,21.13
2018-11-03T06:49:58.214Z,21.13
2018-11-03T06:55:01.684Z,21.14
2018-11-03T07:00:07.834Z,21.16
2018-11-03T07:05:11.382Z,21.10
2018-11-03T07:10:14.776Z,20.89
2018-11-03T07:15:18.255Z,20.83
2018-11-03T07:20:21.732Z,20.82
2018-11-03T07:25:25.182Z,20.81
2018-11-03T07:30:28.644Z,20.91
2018-11-03T07:35:32.080Z,20.87
2018-11-03T07:40:35.918Z,20.75
2018-11-03T07:45:39.421Z,20.72
2018-11-03T07:50:42.870Z,20.69
2018-11-03T07:55:46.317Z,20.70
2018-11-03T08:00:49.839Z,20.88
2018-11-03T08:05:53.292Z,20.98
2018-11-03T08:10:56.784Z,21.09
2018-11-03T08:16:00.249Z,20.99
2018-11-03T08:21:03.758Z,21.06
2018-11-03T08:26:07.226Z,21.11
2018-11-03T08:31:10.694Z,21.06
2018-11-03T08:36:14.213Z,21.15
2018-11-03T08:41:17.712Z,21.04
2018-11-03T08:46:21.221Z,17.57
2018-11-03T08:51:24.694Z,17.22
2018-11-03T08:56:28.161Z,17.39
2018-11-03T09:01:31.607Z,19.39
2018-11-03T09:06:35.301Z,19.83
2018-11-03T09:11:38.789Z,19.93
2018-11-03T09:16:42.274Z,20.05
2018-11-03T09:21:45.820Z,20.12
2018-11-03T09:26:49.231Z,20.14
2018-11-03T09:31:52.817Z,20.23
2018-11-03T09:36:56.186Z,20.21
2018-11-03T09:41:59.662Z,20.22
2018-11-03T09:47:03.127Z,20.31
2018-11-03T09:52:06.569Z,20.28
2018-11-03T09:57:10.019Z,20.25
2018-11-03T10:02:13.512Z,20.38
2018-11-03T10:07:16.994Z,20.32
2018-11-03T10:12:20.490Z,20.22
2018-11-03T10:17:24.020Z,20.23
2018-11-03T10:22:27.629Z,20.30
2018-11-03T10:27:30.950Z,20.30
2018-11-03T10:32:34.403Z,20.25
2018-11-03T10:37:37.982Z,20.25
2018-11-03T10:42:41.742Z,20.34
2018-11-03T10:47:45.568Z,20.35
2018-11-03T10:52:49.110Z,20.26
2018-11-03T10:57:52.567Z,20.23
2018-11-03T11:03:01.416Z,20.25
2018-11-03T11:08:10.666Z,20.25
2018-11-03T11:13:16.885Z,20.29
2018-11-03T11:18:20.394Z,20.27
2018-11-03T11:23:23.907Z,20.29
2018-11-03T11:28:27.346Z,20.37
2018-11-03T11:33:30.847Z,20.36
2018-11-03T11:44:02.318Z,20.49
2018-11-03T11:49:05.908Z,20.51
2018-11-03T11:54:09.358Z,20.61
2018-11-03T11:59:12.823Z,20.66
2018-11-03T12:04:16.278Z,20.63
2018-11-03T12:09:19.730Z,20.65
2018-11-03T12:14:23.204Z,20.58
2018-11-03T12:47:43.474Z,20.62
2018-11-03T12:52:47.176Z,20.60
2018-11-03T12:57:50.688Z,20.63
2018-11-03T13:02:54.171Z,20.67
2018-11-03T13:07:57.648Z,20.79
2018-11-03T13:13:01.111Z,20.76
2018-11-03T13:18:04.653Z,20.79
2018-11-03T13:23:08.103Z,20.82
2018-11-03T13:28:11.538Z,20.86
2018-11-03T13:33:14.992Z,20.88
2018-11-03T13:38:18.482Z,20.91
2018-11-03T13:43:21.998Z,20.95
2018-11-03T13:48:25.486Z,20.95
2018-11-03T13:53:29.015Z,20.95
2018-11-03T13:58:32.706Z,21.00
2018-11-03T14:03:36.179Z,21.13
2018-11-03T14:08:39.626Z,21.04
2018-11-03T14:13:43.116Z,21.06
2018-11-03T14:18:46.574Z,21.18
2018-11-03T14:23:50.079Z,21.14
2018-11-03T14:28:53.691Z,21.14
2018-11-03T14:33:57.150Z,21.16
2018-11-03T14:39:00.694Z,21.15
2018-11-03T14:44:04.149Z,21.15
2018-11-03T14:49:08.154Z,21.18
2018-11-03T14:54:11.683Z,21.19
2018-11-03T14:59:15.259Z,21.28
2018-11-03T15:04:18.727Z,21.24
2018-11-03T15:09:22.201Z,21.22
2018-11-03T15:14:25.980Z,21.25
2018-11-03T15:19:29.356Z,21.19
2018-11-03T15:24:32.854Z,21.20
2018-11-03T15:29:36.301Z,21.19
2018-11-03T15:34:39.740Z,21.21
2018-11-03T15:39:43.272Z,21.27
2018-11-03T15:44:47.157Z,21.19
2018-11-03T15:49:50.640Z,21.17
2018-11-03T15:54:54.173Z,21.18
2018-11-03T15:59:57.614Z,21.17
2018-11-03T16:05:01.148Z,21.16
2018-11-03T16:10:05.856Z,21.17
2018-11-03T16:15:10.673Z,21.16
2018-11-03T16:20:14.218Z,21.17
2018-11-03T16:25:17.710Z,21.18
2018-11-03T16:30:21.226Z,21.15
2018-11-03T16:35:24.722Z,21.17
2018-11-03T16:40:28.162Z,21.31
2018-11-03T16:45:31.838Z,21.39
2018-11-03T16:50:35.291Z,21.39
2018-11-03T16:55:38.884Z,21.28
2018-11-03T17:00:42.315Z,21.23
2018-11-03T17:05:45.768Z,21.22
2018-11-03T17:10:49.218Z,21.61
2018-11-03T17:15:52.678Z,21.89
2018-11-03T17:20:56.173Z,22.03
2018-11-03T17:25:59.610Z,22.01
2018-11-03T17:31:03.088Z,22.02
2018-11-03T17:36:06.626Z,22.01
2018-11-03T17:41:10.027Z,21.87
2018-11-03T17:46:13.472Z,21.82
2018-11-03T17:51:16.910Z,21.73
2018-11-03T17:56:20.433Z,21.69
2018-11-03T18:01:23.982Z,21.72
2018-11-03T18:06:27.455Z,22.05
2018-11-03T18:11:30.907Z,22.09
2018-11-03T18:16:34.430Z,22.08
2018-11-03T18:21:38.542Z,22.11
2018-11-03T18:26:42.097Z,22.01
2018-11-03T18:31:45.551Z,21.87
2018-11-03T18:36:49.126Z,21.91
2018-11-03T18:41:52.688Z,21.89
2018-11-03T18:46:56.164Z,21.85
2018-11-03T18:51:59.640Z,21.88
2018-11-03T18:57:03.102Z,21.85
2018-11-03T19:02:06.732Z,21.99
2018-11-03T19:07:10.191Z,22.11
2018-11-03T19:12:13.670Z,22.13
2018-11-03T19:17:17.177Z,22.17
2018-11-03T19:22:20.618Z,22.22
2018-11-03T19:27:24.055Z,22.11
2018-11-03T19:32:27.530Z,22.10
2018-11-03T19:37:30.965Z,22.03
2018-11-03T19:42:35.310Z,21.99
2018-11-03T19:47:38.749Z,21.93
2018-11-03T19:52:42.221Z,21.87
2018-11-03T19:57:45.691Z,22.07
2018-11-03T20:02:49.235Z,22.12
2018-11-03T20:07:52.838Z,22.21
2018-11-03T20:12:59.390Z,22.17
2018-11-03T20:18:02.976Z,22.10
2018-11-03T20:23:06.424Z,22.09
2018-11-03T20:28:09.887Z,22.11
2018-11-03T20:33:13.430Z,22.01
2018-11-03T20:38:16.975Z,21.99
2018-11-03T20:43:20.419Z,21.95
2018-11-03T20:48:23.882Z,21.95
2018-11-03T20:53:27.432Z,21.94
2018-11-03T20:58:30.883Z,22.00
2018-11-03T21:03:34.372Z,21.94
2018-11-03T21:08:37.874Z,21.96
2018-11-03T21:13:41.356Z,21.94
2018-11-03T21:18:44.890Z,21.93
2018-11-03T21:23:48.371Z,21.91
2018-11-03T21:28:51.793Z,21.92
2018-11-03T21:33:55.306Z,21.85
2018-11-03T21:38:58.761Z,21.88
2018-11-03T21:44:02.241Z,21.87
2018-11-03T21:49:05.880Z,21.88
2018-11-03T21:54:09.399Z,21.88
2018-11-03T21:59:12.857Z,21.80
2018-11-03T22:04:16.333Z,21.81
2018-11-03T22:09:20.553Z,21.77
2018-11-03T22:14:24.028Z,21.73
2018-11-03T22:19:27.518Z,21.69
2018-11-03T22:24:30.962Z,21.82
2018-11-03T22:29:34.417Z,21.75
2018-11-03T22:34:37.885Z,21.74
2018-11-03T22:39:41.350Z,21.74
2018-11-03T22:44:44.784Z,21.75
2018-11-03T22:49:48.223Z,21.78
2018-11-03T22:54:51.685Z,21.76
2018-11-03T22:59:55.116Z,21.74
2018-11-03T23:04:58.556Z,21.71
2018-11-03T23:10:02.859Z,21.74
2018-11-03T23:15:07.810Z,21.66
2018-11-03T23:20:12.868Z,21.70
2018-11-03T23:25:16.375Z,21.74
2018-11-03T23:30:20.118Z,21.67
2018-11-03T23:35:23.702Z,21.64
2018-11-03T23:40:27.388Z,21.66
2018-11-03T23:45:31.009Z,21.69
2018-11-03T23:50:34.761Z,21.64
2018-11-03T23:55:38.238Z,21.65
